Time;durP1;ratioP1;P1;durP2;ratioP2;P2;SDS_P1;SDS_P2;PMS_P1;PMS_P2;Temp;Humidity;BMP_temperature;BMP_pressure;BME280_temperature;BME280_humidity;BME280_pressure;Samples;Min_cycle;Max_cycle;Signal;HPM_P1;HPM_P2
2023/02/05 00:01:49;;;;;;;0.00;0.00;;;;;;;5.34;66.28;103791.59;7356672;19;20841;-59
2023/02/05 00:04:15;;;;;;;0.10;0.10;;;;;;;5.43;66.34;103803.28;7356181;19;20035;-58
2023/02/05 00:06:40;;;;;;;0.10;0.10;;;;;;;5.36;66.82;103806.38;7357506;19;20010;-58
2023/02/05 00:09:06;;;;;;;0.10;0.10;;;;;;;5.42;66.75;103837.81;7360528;19;20030;-58
2023/02/05 00:11:31;;;;;;;0.00;0.00;;;;;;;5.41;66.89;103843.78;7354852;19;20006;-58
2023/02/05 00:13:57;;;;;;;0.10;0.10;;;;;;;5.37;66.73;103838.38;7351656;19;20023;-59
2023/02/05 00:16:23;;;;;;;0.05;0.05;;;;;;;5.35;66.78;103840.88;7353475;19;20019;-59
2023/02/05 00:18:49;;;;;;;0.10;0.10;;;;;;;5.22;67.10;103804.84;7359890;19;20730;-59
2023/02/05 00:21:15;;;;;;;0.10;0.10;;;;;;;5.35;66.99;103827.94;7358854;19;20010;-58
2023/02/05 00:23:41;;;;;;;0.00;0.00;;;;;;;5.19;67.04;103812.44;7360582;19;20006;-59
2023/02/05 00:26:09;;;;;;;0.10;0.10;;;;;;;5.32;67.03;103838.16;7359867;19;20006;-59
2023/02/05 00:28:35;;;;;;;0.00;0.00;;;;;;;5.31;66.80;103826.00;7357943;19;20016;-58
2023/02/05 00:31:10;;;;;;;0.10;0.10;;;;;;;5.30;66.93;103821.63;7354187;19;20026;-58
2023/02/05 00:33:36;;;;;;;0.03;0.03;;;;;;;5.17;66.67;103804.63;7357226;19;20025;-59
2023/02/05 00:36:02;;;;;;;0.10;0.10;;;;;;;5.27;66.75;103821.50;7356376;19;20014;-56
2023/02/05 00:38:27;;;;;;;0.10;0.10;;;;;;;5.14;66.59;103798.38;7352886;19;20031;-59
2023/02/05 00:40:53;;;;;;;0.10;0.10;;;;;;;5.19;66.48;103822.81;7350822;19;21294;-56
2023/02/05 00:43:18;;;;;;;0.00;0.00;;;;;;;5.04;67.13;103806.50;7353415;19;20801;-58
2023/02/05 00:45:43;;;;;;;0.10;0.10;;;;;;;5.15;66.78;103847.66;7356841;19;20018;-57
2023/02/05 00:48:09;;;;;;;0.10;0.10;;;;;;;5.08;66.79;103849.91;7352983;19;20037;-58
2023/02/05 00:50:34;;;;;;;0.10;0.10;;;;;;;5.12;66.51;103856.97;7361839;19;20647;-59
2023/02/05 00:53:00;;;;;;;0.10;0.10;;;;;;;5.11;66.79;103856.09;7359474;19;20027;-58
2023/02/05 00:55:26;;;;;;;0.10;0.10;;;;;;;4.88;66.56;103836.81;7359517;19;20564;-58
2023/02/05 00:57:51;;;;;;;0.10;0.10;;;;;;;4.87;66.75;103873.00;7359345;19;20015;-59
2023/02/05 01:00:17;;;;;;;0.10;0.10;;;;;;;5.03;66.67;103913.53;7360474;19;20018;-59
2023/02/05 01:02:42;;;;;;;0.10;0.10;;;;;;;4.99;66.80;103911.56;7359538;19;20427;-58
2023/02/05 01:05:08;;;;;;;0.00;0.00;;;;;;;4.93;66.64;103902.69;7357868;19;20014;-59
2023/02/05 01:07:34;;;;;;;0.00;0.00;;;;;;;4.94;67.09;103920.00;7359667;19;20062;-59
2023/02/05 01:09:59;;;;;;;0.00;0.00;;;;;;;4.84;66.80;103928.09;7359737;19;20027;-57
2023/02/05 01:12:25;;;;;;;0.10;0.10;;;;;;;4.74;67.21;103925.81;7362206;19;20018;-58
2023/02/05 01:14:50;;;;;;;0.10;0.10;;;;;;;4.73;66.86;103929.22;7361802;19;20041;-59
2023/02/05 01:17:16;;;;;;;0.10;0.10;;;;;;;4.83;66.73;103941.84;7356677;19;20006;-60
2023/02/05 01:19:41;;;;;;;0.10;0.10;;;;;;;4.75;66.68;103927.59;7362012;19;20457;-61
2023/02/05 01:22:07;;;;;;;0.10;0.10;;;;;;;4.38;66.85;103871.28;7359493;19;20034;-60
2023/02/05 01:24:32;;;;;;;0.10;0.10;;;;;;;4.71;66.84;103936.00;7361750;19;20018;-61
2023/02/05 01:26:58;;;;;;;0.10;0.10;;;;;;;4.76;67.32;103942.31;7361371;19;20011;-60
2023/02/05 01:29:25;;;;;;;0.10;0.10;;;;;;;4.35;67.12;103878.88;7357855;19;20017;-60
2023/02/05 01:31:51;;;;;;;0.10;0.10;;;;;;;4.73;67.11;103942.16;7359565;19;20022;-60
2023/02/05 01:34:16;;;;;;;0.00;0.00;;;;;;;4.56;66.95;103932.59;7359777;19;20006;-60
2023/02/05 01:36:42;;;;;;;0.00;0.00;;;;;;;4.55;66.87;103943.75;7361396;19;20003;-60
2023/02/05 01:39:07;;;;;;;0.10;0.10;;;;;;;4.65;66.85;103957.28;7359222;19;20014;-61
2023/02/05 01:41:34;;;;;;;0.00;0.00;;;;;;;4.62;67.25;103941.59;7357888;19;20017;-60
2023/02/05 01:44:23;;;;;;;0.10;0.10;;;;;;;4.62;66.97;103938.13;7360218;19;20022;-61
2023/02/05 01:46:53;;;;;;;0.10;0.10;;;;;;;4.56;67.05;103946.47;7259272;19;2004337;-61
2023/02/05 01:49:33;;;;;;;0.03;0.03;;;;;;;4.52;66.94;103951.38;7362356;19;20529;-60
2023/02/05 01:52:04;;;;;;;0.10;0.10;;;;;;;4.40;67.36;103931.75;7358465;19;20015;-61
2023/02/05 01:54:33;;;;;;;0.10;0.10;;;;;;;4.47;67.39;103934.72;7361274;19;20039;-61
2023/02/05 01:57:08;;;;;;;0.10;0.10;;;;;;;4.50;67.34;103929.69;7359755;19;20011;-61
2023/02/05 01:59:38;;;;;;;0.10;0.10;;;;;;;4.42;66.85;103958.63;7359961;19;20023;-60
2023/02/05 02:02:06;;;;;;;0.00;0.00;;;;;;;4.45;67.19;103982.88;7355716;19;20023;-60
2023/02/05 02:04:42;;;;;;;0.10;0.10;;;;;;;4.41;66.92;103980.16;7361082;19;20017;-60
2023/02/05 02:07:11;;;;;;;0.10;0.10;;;;;;;4.33;66.97;103958.13;7360699;19;20018;-61
2023/02/05 02:09:38;;;;;;;0.10;0.10;;;;;;;4.38;67.32;103956.69;7358058;19;20024;-59
2023/02/05 02:12:05;;;;;;;0.10;0.10;;;;;;;4.30;66.98;103947.59;7359845;19;20016;-60
2023/02/05 02:14:32;;;;;;;0.10;0.10;;;;;;;4.26;67.16;103961.19;7359537;19;20461;-60
2023/02/05 02:16:59;;;;;;;;;;;;;;;4.34;66.48;103990.94;7360711;19;20021;-61
2023/02/05 02:19:44;;;;;;;0.10;0.10;;;;;;;4.24;66.71;103980.88;7359973;19;19922;-61
2023/02/05 02:22:15;;;;;;;0.00;0.00;;;;;;;4.26;67.21;103978.38;7358263;19;20011;-60
2023/02/05 02:25:07;;;;;;;0.10;0.10;;;;;;;4.25;67.21;103984.34;7359683;19;20040;-60
2023/02/05 02:27:43;;;;;;;0.00;0.00;;;;;;;4.10;66.69;103984.38;7257807;19;2004460;-61
2023/02/05 02:30:30;;;;;;;0.03;0.03;;;;;;;4.19;67.13;104005.59;7359323;19;20010;-61
2023/02/05 02:33:20;;;;;;;0.10;0.10;;;;;;;4.16;66.98;104000.28;7359641;19;20023;-60
2023/02/05 02:35:50;;;;;;;0.00;0.00;;;;;;;4.13;67.32;103994.91;7357862;19;20034;-60
2023/02/05 02:38:31;;;;;;;0.10;0.10;;;;;;;4.06;66.70;103978.19;7358189;19;20369;-61
2023/02/05 02:41:22;;;;;;;0.10;0.10;;;;;;;4.06;66.95;103987.63;7355280;19;20018;-60
2023/02/05 02:43:55;;;;;;;0.10;0.10;;;;;;;4.01;66.87;103989.06;7359507;19;20775;-59
2023/02/05 02:46:26;;;;;;;0.10;0.10;;;;;;;3.84;66.95;103960.53;7343070;19;20018;-61
2023/02/05 02:48:53;;;;;;;0.10;0.10;;;;;;;3.99;67.06;103980.31;7358733;19;20095;-60
2023/02/05 02:51:22;;;;;;;0.10;0.10;;;;;;;3.79;67.22;103918.00;7358570;19;20010;-60
2023/02/05 02:53:52;;;;;;;0.10;0.10;;;;;;;3.95;67.26;103942.16;7359817;19;20010;-60
2023/02/05 02:56:18;;;;;;;0.10;0.10;;;;;;;3.83;67.46;103953.59;7361255;19;20561;-60
2023/02/05 02:58:55;;;;;;;0.00;0.00;;;;;;;3.72;67.06;103949.50;7349674;19;20025;-61
2023/02/05 03:01:24;;;;;;;0.10;0.10;;;;;;;3.72;67.43;103946.91;7356585;19;20074;-62
2023/02/05 03:03:56;;;;;;;0.10;0.10;;;;;;;3.67;67.21;103908.69;7357519;19;20740;-59
2023/02/05 03:06:22;;;;;;;0.10;0.10;;;;;;;3.80;67.71;103952.50;7356245;19;20014;-61
2023/02/05 03:08:59;;;;;;;0.10;0.10;;;;;;;3.80;67.37;103963.78;7357824;19;20485;-60
2023/02/05 03:11:25;;;;;;;0.05;0.05;;;;;;;3.73;67.56;103966.78;7357176;19;20011;-62
2023/02/05 03:13:51;;;;;;;0.10;0.10;;;;;;;3.67;67.22;103956.09;7354075;19;20059;-60
2023/02/05 03:16:18;;;;;;;0.10;0.10;;;;;;;3.73;67.33;103977.13;7357016;19;20010;-60
2023/02/05 03:18:44;;;;;;;0.00;0.00;;;;;;;3.72;67.56;103977.94;7362009;19;20010;-60
2023/02/05 03:21:22;;;;;;;0.10;0.10;;;;;;;3.66;67.42;103969.81;7362465;19;20033;-61
2023/02/05 03:23:48;;;;;;;0.10;0.10;;;;;;;3.69;67.34;103977.75;7358412;19;20003;-60
2023/02/05 03:26:24;;;;;;;0.00;0.00;;;;;;;3.68;67.39;103973.38;7365244;19;20014;-60
2023/02/05 03:28:50;;;;;;;0.10;0.10;;;;;;;3.66;67.52;103964.66;7363140;19;20011;-61
2023/02/05 03:31:52;;;;;;;0.10;0.10;;;;;;;3.57;67.56;103954.66;7363378;19;20026;-58
2023/02/05 03:34:46;;;;;;;0.00;0.00;;;;;;;3.61;67.66;103974.72;7261104;19;2004494;-60
2023/02/05 03:37:28;;;;;;;0.10;0.10;;;;;;;3.46;67.24;103949.69;7359986;19;20018;-60
2023/02/05 03:40:15;;;;;;;0.10;0.10;;;;;;;3.52;67.57;103966.44;7363981;19;20600;-60
2023/02/05 03:42:57;;;;;;;0.08;0.08;;;;;;;3.49;67.55;103962.75;7362612;19;20040;-61
2023/02/05 03:45:25;;;;;;;0.10;0.10;;;;;;;3.51;67.84;103980.16;7362647;19;20821;-60
2023/02/05 03:48:11;;;;;;;0.00;0.00;;;;;;;3.24;67.69;103937.16;7361077;19;20115;-60
2023/02/05 03:50:42;;;;;;;0.10;0.10;;;;;;;3.35;67.73;103983.53;7359049;19;20021;-61
2023/02/05 03:53:27;;;;;;;0.10;0.10;;;;;;;3.02;66.84;103959.13;7361195;19;20017;-60
2023/02/05 03:56:14;;;;;;;0.10;0.10;;;;;;;3.36;66.77;104044.72;7358256;19;20010;-60
2023/02/05 03:58:45;;;;;;;0.10;0.10;;;;;;;3.31;67.19;104038.38;7362814;19;20031;-61
2023/02/05 04:01:11;;;;;;;0.08;0.08;;;;;;;3.31;67.19;104053.88;7359263;19;20911;-59
2023/02/05 04:03:37;;;;;;;0.10;0.10;;;;;;;3.16;67.24;104057.22;7348227;19;20047;-60
2023/02/05 04:06:02;;;;;;;0.10;0.10;;;;;;;3.11;67.04;104067.25;7360099;19;21347;-61
2023/02/05 04:08:28;;;;;;;0.10;0.10;;;;;;;3.18;67.33;104051.34;7360097;19;20114;-60
2023/02/05 04:10:53;;;;;;;0.10;0.10;;;;;;;3.09;67.82;104032.69;7361512;19;20773;-61
2023/02/05 04:13:19;;;;;;;0.10;0.10;;;;;;;3.19;68.12;104055.69;7363670;19;20067;-60
2023/02/05 04:15:46;;;;;;;0.10;0.10;;;;;;;3.11;67.92;104038.84;7362045;19;20018;-61
2023/02/05 04:18:12;;;;;;;0.10;0.10;;;;;;;3.09;68.15;104041.34;7364527;19;20025;-60
2023/02/05 04:20:37;;;;;;;0.10;0.10;;;;;;;3.03;67.77;104040.06;7353387;19;20481;-60
2023/02/05 04:23:02;;;;;;;0.10;0.10;;;;;;;3.10;67.57;104062.91;7347888;19;20015;-60
2023/02/05 04:25:28;;;;;;;0.10;0.10;;;;;;;3.10;67.82;104057.72;7363081;19;20031;-60
2023/02/05 04:27:53;;;;;;;0.10;0.10;;;;;;;3.03;68.00;104047.81;7362271;19;20050;-60
2023/02/05 04:30:19;;;;;;;0.10;0.10;;;;;;;2.46;67.66;103981.44;7362937;19;20121;-60
2023/02/05 04:32:44;;;;;;;0.10;0.10;;;;;;;2.88;67.69;104078.72;7363736;19;20340;-61
2023/02/05 04:35:09;;;;;;;0.00;0.00;;;;;;;2.99;68.05;104084.53;7362633;19;20010;-60
2023/02/05 04:37:35;;;;;;;0.10;0.10;;;;;;;2.88;67.61;104054.59;7360493;19;20013;-60
2023/02/05 04:40:00;;;;;;;0.10;0.10;;;;;;;2.89;67.64;104066.69;7360306;19;20013;-61
2023/02/05 04:42:26;;;;;;;0.10;0.10;;;;;;;2.97;67.65;104081.00;7362285;19;20015;-60
2023/02/05 04:44:53;;;;;;;0.00;0.00;;;;;;;2.93;67.90;104048.03;7360008;19;20042;-60
2023/02/05 04:47:18;;;;;;;0.00;0.00;;;;;;;2.92;68.13;104051.41;7361333;19;20006;-60
2023/02/05 04:49:43;;;;;;;0.10;0.10;;;;;;;2.98;68.00;104081.06;7364300;19;20033;-61
2023/02/05 04:52:09;;;;;;;0.00;0.00;;;;;;;2.70;67.74;104013.06;7361424;19;20018;-58
2023/02/05 04:54:36;;;;;;;0.10;0.10;;;;;;;2.89;67.69;104033.13;7363560;19;20856;-60
2023/02/05 04:57:02;;;;;;;0.10;0.10;;;;;;;2.72;67.72;104026.94;7358695;19;20006;-60
2023/02/05 04:59:28;;;;;;;0.10;0.10;;;;;;;2.86;67.32;104049.34;7360605;19;20027;-60
2023/02/05 05:01:54;;;;;;;0.10;0.10;;;;;;;2.85;67.81;104034.66;7361648;19;20026;-59
2023/02/05 05:04:20;;;;;;;0.10;0.10;;;;;;;2.80;67.88;104042.13;7361243;19;20263;-60
2023/02/05 05:06:45;;;;;;;0.00;0.00;;;;;;;2.85;67.57;104051.03;7364315;19;20029;-59
2023/02/05 05:09:11;;;;;;;0.00;0.00;;;;;;;2.80;67.75;104046.38;7359147;19;20006;-61
2023/02/05 05:11:36;;;;;;;0.08;0.08;;;;;;;2.68;67.71;104041.31;7360974;19;20010;-60
2023/02/05 05:14:01;;;;;;;0.10;0.10;;;;;;;2.81;67.65;104074.88;7360774;19;20018;-60
2023/02/05 05:16:27;;;;;;;0.00;0.00;;;;;;;2.78;67.91;104058.28;7362327;19;20742;-60
2023/02/05 05:18:52;;;;;;;0.10;0.10;;;;;;;2.71;67.78;104051.84;7358288;19;20027;-60
2023/02/05 05:21:18;;;;;;;0.00;0.00;;;;;;;2.77;67.83;104062.56;7363101;19;20014;-60
2023/02/05 05:23:43;;;;;;;0.10;0.10;;;;;;;2.75;68.13;104040.94;7361436;19;20086;-60
2023/02/05 05:26:11;;;;;;;0.10;0.10;;;;;;;2.72;68.52;104042.41;7363378;19;20013;-61
2023/02/05 05:28:37;;;;;;;0.00;0.00;;;;;;;2.75;68.13;104068.44;7359215;19;20414;-61
2023/02/05 05:31:18;;;;;;;0.10;0.10;;;;;;;2.72;68.32;104048.47;7361728;19;20646;-59
2023/02/05 05:33:44;;;;;;;0.10;0.10;;;;;;;2.74;68.23;104035.69;7364039;19;20056;-60
2023/02/05 05:36:10;;;;;;;0.10;0.10;;;;;;;2.72;68.53;104038.16;7361349;19;20069;-60
2023/02/05 05:38:36;;;;;;;0.10;0.10;;;;;;;2.64;68.06;104028.16;7358691;19;20046;-60
2023/02/05 05:43:46;;;;;;;0.10;0.10;;;;;;;2.68;68.01;104043.00;7363270;19;20046;-60
2023/02/05 05:46:20;;;;;;;0.10;0.10;;;;;;;2.48;68.27;104015.94;7358843;19;21338;-59
2023/02/05 05:48:48;;;;;;;0.00;0.00;;;;;;;2.66;68.13;104052.34;7362493;19;20397;-60
2023/02/05 05:51:13;;;;;;;0.10;0.10;;;;;;;2.63;68.20;104047.88;7360714;19;20010;-60
2023/02/05 05:53:38;;;;;;;0.10;0.10;;;;;;;2.56;68.32;104032.81;7362762;19;20022;-61
2023/02/05 05:56:04;;;;;;;0.00;0.00;;;;;;;2.46;68.25;103997.81;7356899;19;20527;-61
2023/02/05 05:58:29;;;;;;;0.10;0.10;;;;;;;2.56;68.13;104028.53;7361154;19;20034;-60
2023/02/05 06:00:55;;;;;;;0.10;0.10;;;;;;;2.38;68.00;104008.41;7357454;19;20033;-60
2023/02/05 06:03:21;;;;;;;0.10;0.10;;;;;;;2.46;68.27;104002.06;7359614;19;20022;-60
2023/02/05 06:05:46;;;;;;;0.10;0.10;;;;;;;2.51;68.29;104006.72;7362966;19;20014;-61
2023/02/05 06:08:12;;;;;;;0.10;0.10;;;;;;;2.32;68.31;103989.19;7357100;19;20019;-61
2023/02/05 06:10:38;;;;;;;0.10;0.10;;;;;;;2.34;68.73;103974.72;7360135;19;20014;-60
2023/02/05 06:13:03;;;;;;;0.10;0.10;;;;;;;2.49;68.32;103991.97;7357521;19;20376;-61
2023/02/05 06:15:29;;;;;;;0.10;0.10;;;;;;;2.44;68.54;103998.53;7360829;19;20100;-61
2023/02/05 06:17:54;;;;;;;0.10;0.10;;;;;;;2.48;68.40;104006.53;7359673;19;20017;-61
2023/02/05 06:20:20;;;;;;;0.05;0.05;;;;;;;2.40;68.14;103981.06;7356613;19;20010;-61
2023/02/05 06:22:45;;;;;;;0.10;0.10;;;;;;;2.29;68.40;103970.94;7358631;19;20023;-60
2023/02/05 06:25:11;;;;;;;0.10;0.10;;;;;;;2.46;68.49;103999.50;7360506;19;20006;-60
2023/02/05 06:27:36;;;;;;;0.10;0.10;;;;;;;2.41;68.56;103998.31;7360071;19;20010;-60
2023/02/05 06:30:03;;;;;;;0.10;0.10;;;;;;;2.47;68.45;104002.16;7358445;19;20007;-60
2023/02/05 06:32:28;;;;;;;0.00;0.00;;;;;;;2.46;68.41;104002.06;7359248;19;20032;-60
2023/02/05 06:34:54;;;;;;;0.10;0.10;;;;;;;2.43;68.74;104007.03;7358711;19;20018;-60
2023/02/05 06:37:19;;;;;;;0.10;0.10;;;;;;;2.45;68.29;104020.94;7361335;19;20035;-60
2023/02/05 06:39:44;;;;;;;0.10;0.10;;;;;;;2.45;68.43;104024.41;7356286;19;21519;-60
2023/02/05 06:42:10;;;;;;;0.10;0.10;;;;;;;2.37;68.48;104002.38;7360182;19;20030;-60
2023/02/05 06:44:35;;;;;;;0.10;0.10;;;;;;;2.44;68.39;104021.72;7356195;19;20018;-60
2023/02/05 06:47:01;;;;;;;0.10;0.10;;;;;;;2.44;68.30;104034.63;7358701;19;20090;-60
2023/02/05 06:49:27;;;;;;;0.10;0.10;;;;;;;2.43;68.47;104032.81;7360433;19;20014;-60
2023/02/05 06:51:53;;;;;;;0.10;0.10;;;;;;;2.24;68.56;104000.72;7354586;19;20067;-60
2023/02/05 06:54:18;;;;;;;0.00;0.00;;;;;;;2.38;68.35;104013.56;7360091;19;20544;-58
2023/02/05 06:56:43;;;;;;;0.10;0.10;;;;;;;2.04;68.74;103958.16;7357986;19;20021;-61
2023/02/05 06:59:09;;;;;;;0.10;0.10;;;;;;;2.43;68.56;104037.97;7347281;19;20015;-60
2023/02/05 07:01:34;;;;;;;0.10;0.10;;;;;;;2.31;68.65;104023.50;7356523;19;20027;-59
2023/02/05 07:04:00;;;;;;;0.10;0.10;;;;;;;2.40;68.71;104041.25;7352789;19;20017;-60
2023/02/05 07:06:26;;;;;;;0.10;0.10;;;;;;;2.38;68.56;104057.41;7356987;19;20031;-61
2023/02/05 07:08:52;;;;;;;0.10;0.10;;;;;;;2.42;68.57;104051.66;7356755;19;20036;-61
2023/02/05 07:11:18;;;;;;;0.10;0.10;;;;;;;2.33;68.64;104032.25;7356128;19;20027;-61
2023/02/05 07:13:44;;;;;;;0.10;0.10;;;;;;;2.24;68.54;104021.34;7354906;19;20015;-60
2023/02/05 07:16:09;;;;;;;0.00;0.00;;;;;;;2.16;68.10;104043.13;7357333;19;20031;-60
2023/02/05 07:18:35;;;;;;;0.10;0.10;;;;;;;2.33;68.18;104050.31;7354467;19;20027;-59
2023/02/05 07:21:04;;;;;;;0.10;0.10;;;;;;;2.33;68.20;104050.31;7355499;19;20055;-60
2023/02/05 07:23:30;;;;;;;0.10;0.10;;;;;;;2.33;68.44;104047.72;7353844;19;20018;-60
2023/02/05 07:25:55;;;;;;;0.05;0.05;;;;;;;2.29;68.49;104071.53;7348341;19;20010;-59
2023/02/05 07:28:21;;;;;;;0.10;0.10;;;;;;;2.29;68.53;104071.53;7358011;19;20033;-60
2023/02/05 07:30:47;;;;;;;0.10;0.10;;;;;;;2.13;68.46;104036.88;7351065;19;20837;-60
2023/02/05 07:33:12;;;;;;;0.10;0.10;;;;;;;2.25;68.36;104069.53;7357613;19;20031;-60
2023/02/05 07:35:38;;;;;;;0.10;0.10;;;;;;;2.23;68.38;104065.03;7356469;19;20074;-60
2023/02/05 07:38:04;;;;;;;0.00;0.00;;;;;;;2.29;68.41;104070.63;7357901;19;20018;-60
2023/02/05 07:40:30;;;;;;;0.00;0.00;;;;;;;2.18;68.34;104051.88;7353634;19;20021;-61
2023/02/05 07:42:55;;;;;;;0.10;0.10;;;;;;;2.06;68.23;104040.75;7358304;19;20485;-60
2023/02/05 07:45:21;;;;;;;0.10;0.10;;;;;;;2.05;68.57;104028.66;7348033;19;25284;-60
2023/02/05 07:47:48;;;;;;;0.10;0.10;;;;;;;2.15;68.49;104028.47;7356499;19;20095;-59
2023/02/05 07:50:15;;;;;;;0.10;0.10;;;;;;;2.30;68.67;104062.97;7357293;19;20744;-60
2023/02/05 07:52:40;;;;;;;0.10;0.10;;;;;;;2.21;68.16;104046.00;7355760;19;20039;-61
2023/02/05 07:55:06;;;;;;;0.05;0.05;;;;;;;2.28;68.15;104068.81;7356918;19;20014;-61
2023/02/05 07:57:31;;;;;;;0.10;0.10;;;;;;;2.20;68.11;104070.91;7351792;19;20010;-60
2023/02/05 07:59:57;;;;;;;0.10;0.10;;;;;;;2.25;68.27;104073.78;7353997;19;20738;-60
2023/02/05 08:02:22;;;;;;;0.10;0.10;;;;;;;2.19;68.23;104066.56;7357943;19;20804;-59
2023/02/05 08:04:47;;;;;;;0.10;0.10;;;;;;;2.19;68.63;104066.56;7363970;19;20010;-60
2023/02/05 08:07:13;;;;;;;0.10;0.10;;;;;;;1.69;68.31;103961.03;7361509;19;20027;-57
2023/02/05 08:09:39;;;;;;;0.10;0.10;;;;;;;2.27;68.58;104067.94;7362383;19;20469;-60
2023/02/05 08:12:05;;;;;;;0.10;0.10;;;;;;;2.23;68.62;104065.03;7362760;19;20006;-60
2023/02/05 08:14:30;;;;;;;0.10;0.10;;;;;;;2.26;68.82;104071.31;7358654;19;20010;-60
2023/02/05 08:16:58;;;;;;;0.10;0.10;;;;;;;2.16;68.83;104053.44;7362234;19;20005;-61
2023/02/05 08:19:24;;;;;;;0.10;0.10;;;;;;;2.25;68.55;104073.78;7359269;19;21049;-60
2023/02/05 08:21:50;;;;;;;0.10;0.10;;;;;;;2.23;68.45;104071.13;7357831;19;20015;-60
2023/02/05 08:24:15;;;;;;;0.10;0.10;;;;;;;2.28;68.30;104073.97;7356087;19;20014;-59
2023/02/05 08:26:41;;;;;;;0.10;0.10;;;;;;;2.17;68.81;104049.19;7363973;19;20007;-59
2023/02/05 08:29:07;;;;;;;0.10;0.10;;;;;;;2.27;68.77;104067.94;7361211;19;20561;-60
2023/02/05 08:31:34;;;;;;;0.10;0.10;;;;;;;2.16;68.56;104048.28;7358910;19;20006;-60
2023/02/05 08:33:59;;;;;;;0.10;0.10;;;;;;;2.31;68.27;104069.03;7362064;19;20007;-60
2023/02/05 08:36:25;;;;;;;0.10;0.10;;;;;;;2.20;68.34;104029.66;7360521;19;20019;-60
2023/02/05 08:38:50;;;;;;;0.10;0.10;;;;;;;2.26;68.60;104039.47;7361187;19;20477;-60
2023/02/05 08:41:16;;;;;;;0.00;0.00;;;;;;;2.09;68.71;104015.19;7363767;19;20012;-61
2023/02/05 08:43:44;;;;;;;0.00;0.00;;;;;;;2.32;68.36;104056.22;7359197;19;20009;-60
2023/02/05 08:46:12;;;;;;;0.10;0.10;;;;;;;2.41;68.41;104055.06;7363746;19;20038;-60
2023/02/05 08:48:38;;;;;;;0.10;0.10;;;;;;;2.44;68.48;104063.00;7358885;19;20007;-59
2023/02/05 08:51:04;;;;;;;0.10;0.10;;;;;;;2.43;68.44;104061.19;7355891;19;20027;-60
2023/02/05 08:53:31;;;;;;;0.03;0.03;;;;;;;2.17;68.46;104010.50;7362396;19;20086;-60
2023/02/05 08:55:58;;;;;;;0.10;0.10;;;;;;;2.50;68.28;104058.22;7361772;19;20030;-60
2023/02/05 08:58:24;;;;;;;0.10;0.10;;;;;;;2.43;68.37;104043.13;7358358;19;20013;-60
2023/02/05 09:00:49;;;;;;;0.10;0.10;;;;;;;2.53;68.39;104063.56;7358610;19;20686;-60
2023/02/05 09:03:15;;;;;;;0.10;0.10;;;;;;;2.53;68.39;104056.72;7360013;19;20706;-58
2023/02/05 09:05:40;;;;;;;0.10;0.10;;;;;;;2.57;68.86;104057.81;7356060;19;20031;-59
2023/02/05 09:08:06;;;;;;;0.10;0.10;;;;;;;2.55;68.65;104047.41;7345211;19;20034;-60
2023/02/05 09:10:31;;;;;;;0.10;0.10;;;;;;;2.63;68.89;104042.72;7357483;19;20014;-61
2023/02/05 09:12:57;;;;;;;0.00;0.00;;;;;;;2.56;68.83;104033.72;7359398;19;20014;-59
2023/02/05 09:15:22;;;;;;;0.10;0.10;;;;;;;2.58;68.91;104033.78;7356769;19;20018;-60
2023/02/05 09:17:47;;;;;;;0.10;0.10;;;;;;;2.59;68.79;104026.19;7359483;19;20011;-60
2023/02/05 09:20:13;;;;;;;0.10;0.10;;;;;;;2.72;68.85;104022.66;7355805;19;20044;-61
2023/02/05 09:22:38;;;;;;;0.10;0.10;;;;;;;2.95;68.81;104038.72;7360765;19;20011;-60
2023/02/05 09:25:05;;;;;;;0.10;0.10;;;;;;;3.07;69.13;104058.41;7355815;19;21149;-61
2023/02/05 09:27:31;;;;;;;0.10;0.10;;;;;;;3.07;68.56;104052.38;7359220;19;20042;-61
2023/02/05 09:29:56;;;;;;;0.10;0.10;;;;;;;3.26;68.66;104065.63;7358124;19;20007;-60
2023/02/05 09:32:22;;;;;;;0.10;0.10;;;;;;;3.29;68.90;104041.66;7358817;19;20019;-61
2023/02/05 09:34:48;;;;;;;0.10;0.10;;;;;;;3.49;69.04;104045.44;7357699;19;20014;-60
2023/02/05 09:37:14;;;;;;;0.10;0.10;;;;;;;3.69;68.95;104057.84;7361324;19;20039;-60
2023/02/05 09:39:40;;;;;;;0.10;0.10;;;;;;;3.71;68.42;104025.25;7361415;19;20026;-60
2023/02/05 09:42:37;;;;;;;0.00;0.00;;;;;;;3.64;68.38;103980.06;7361241;19;20017;-60
2023/02/05 09:45:11;;;;;;;0.10;0.10;;;;;;;4.21;68.70;104053.16;7252126;19;2004316;-61
2023/02/05 09:48:03;;;;;;;0.10;0.10;;;;;;;4.37;68.83;104053.22;7359890;19;20031;-61
2023/02/05 09:50:29;;;;;;;0.00;0.00;;;;;;;4.59;68.93;104060.47;7257177;19;2004622;-61
2023/02/05 09:53:10;;;;;;;0.10;0.10;;;;;;;4.75;68.83;104051.88;7356737;19;20740;-60
2023/02/05 09:55:38;;;;;;;0.10;0.10;;;;;;;4.82;68.45;104048.81;7357379;19;20093;-60
2023/02/05 09:58:15;;;;;;;0.10;0.10;;;;;;;5.13;68.17;104066.03;7360047;19;20107;-61
2023/02/05 10:00:48;;;;;;;0.10;0.10;;;;;;;5.32;68.10;104067.88;7355278;19;20006;-61
2023/02/05 10:03:43;;;;;;;0.10;0.10;;;;;;;5.47;68.21;104066.09;7361044;19;20011;-61
2023/02/05 10:06:08;;;;;;;0.10;0.10;;;;;;;5.60;67.79;104071.09;7257787;19;2004291;-61
2023/02/05 10:09:03;;;;;;;0.10;0.10;;;;;;;5.85;68.31;104062.88;7359834;19;20347;-61
2023/02/05 10:12:16;;;;;;;0.10;0.10;;;;;;;5.98;68.04;104054.97;7259572;19;2004304;-61
2023/02/05 10:14:47;;;;;;;0.00;0.00;;;;;;;6.23;67.49;104061.34;7256626;19;2004321;-61
2023/02/05 10:18:10;;;;;;;0.10;0.10;;;;;;;6.32;67.70;104043.63;7341846;19;20011;-60
2023/02/05 10:20:48;;;;;;;0.10;0.10;;;;;;;6.57;67.08;104062.97;7146585;19;2004538;-59
2023/02/05 10:23:15;;;;;;;0.08;0.08;;;;;;;6.68;66.68;104061.78;7350435;19;20019;-59
2023/02/05 10:26:08;;;;;;;0.00;0.00;;;;;;;6.73;66.73;104037.78;7351489;19;20043;-59
2023/02/05 10:28:34;;;;;;;0.10;0.10;;;;;;;6.87;66.28;104069.63;7353710;19;20017;-58
2023/02/05 10:31:21;;;;;;;0.00;0.00;;;;;;;6.99;66.30;104069.28;7356090;19;20006;-58
2023/02/05 10:33:54;;;;;;;0.00;0.00;;;;;;;7.07;66.38;104074.84;7257224;19;2004408;-59
2023/02/05 10:36:23;;;;;;;0.10;0.10;;;;;;;7.12;66.24;104062.94;7352929;19;21153;-59
2023/02/05 10:38:52;;;;;;;0.10;0.10;;;;;;;7.08;66.04;104037.63;7348192;19;20006;-58
2023/02/05 10:41:29;;;;;;;0.10;0.10;;;;;;;7.33;66.62;104047.44;7357885;19;20009;-59
2023/02/05 10:44:11;;;;;;;0.05;0.05;;;;;;;7.47;66.58;104039.41;7356922;19;20113;-58
2023/02/05 10:46:38;;;;;;;0.10;0.10;;;;;;;7.52;65.59;104050.91;7353974;19;20112;-59
2023/02/05 10:49:17;;;;;;;0.10;0.10;;;;;;;7.74;66.20;104046.63;7353298;19;20014;-59
2023/02/05 10:51:44;;;;;;;0.00;0.00;;;;;;;7.82;65.41;104042.66;7357961;19;20510;-59
2023/02/05 10:54:18;;;;;;;0.00;0.00;;;;;;;7.45;65.34;103957.88;7354039;19;20030;-58
2023/02/05 10:56:44;;;;;;;0.00;0.00;;;;;;;8.01;65.52;104034.78;7360239;19;20093;-59
2023/02/05 10:59:20;;;;;;;0.10;0.10;;;;;;;8.12;65.08;104023.94;7351355;19;20081;-59
2023/02/05 11:01:45;;;;;;;0.10;0.10;;;;;;;8.25;64.58;104034.00;7357060;19;21122;-59
2023/02/05 11:04:15;;;;;;;0.00;0.00;;;;;;;8.40;64.23;104047.66;7359135;19;20006;-59
2023/02/05 11:06:46;;;;;;;0.00;0.00;;;;;;;8.46;64.07;104045.28;7358846;19;20030;-59
2023/02/05 11:09:23;;;;;;;0.10;0.10;;;;;;;8.54;64.49;104049.09;7354224;19;20090;-59
2023/02/05 11:11:59;;;;;;;0.00;0.00;;;;;;;8.61;64.54;104038.91;7360078;19;20006;-59
2023/02/05 11:14:28;;;;;;;0.10;0.10;;;;;;;8.66;64.05;104035.66;7354428;19;20719;-59
2023/02/05 11:16:54;;;;;;;0.00;0.00;;;;;;;8.78;64.33;104032.66;7359335;19;20011;-59
2023/02/05 11:19:26;;;;;;;0.10;0.10;;;;;;;8.95;64.03;104035.88;7355503;19;20010;-58
2023/02/05 11:21:57;;;;;;;0.00;0.00;;;;;;;9.03;63.95;104030.13;7352065;19;20013;-59
2023/02/05 11:24:24;;;;;;;0.10;0.10;;;;;;;9.13;63.92;104014.84;7358674;19;20024;-58
2023/02/05 11:27:09;;;;;;;0.00;0.00;;;;;;;9.24;63.47;104023.94;7357146;19;20175;-59
2023/02/05 11:29:35;;;;;;;0.00;0.00;;;;;;;9.40;63.65;104030.56;7354197;19;20018;-59
2023/02/05 11:32:00;;;;;;;0.10;0.10;;;;;;;9.56;63.16;104041.59;7353239;19;20054;-59
2023/02/05 11:34:25;;;;;;;0.00;0.00;;;;;;;9.53;63.45;103991.94;7354655;19;20015;-59
2023/02/05 11:36:54;;;;;;;0.10;0.10;;;;;;;9.95;63.38;104028.13;7351353;19;20007;-59
2023/02/05 11:39:35;;;;;;;0.03;0.03;;;;;;;10.21;64.12;104041.16;7349328;19;20043;-59
2023/02/05 11:42:22;;;;;;;0.10;0.10;;;;;;;10.45;64.10;104034.13;7352053;19;20006;-60
2023/02/05 11:44:50;;;;;;;;;;;;;;;10.74;66.01;104036.75;7353667;19;20635;-59
2023/02/05 11:47:34;;;;;;;0.10;0.10;;;;;;;10.95;64.01;104045.25;7349419;19;19922;-60